Adams Landing, Vermont
Current Conditions -  °F | °C
As of 10:53 AM on Saturday 25 Oct 2014 (Local Time) from KPBG Reporting Station
Clear Clear  
Wind Chill: 50°   Ceiling: Unl
Heat Index: 50°   Visibility: 10mi
Dew Point: 44°   Wind: 12mph
Humidity: 80%   Direction: 140°SE
Pressure: 29.72"   Gusts: NA
Location:  44.717°N, 73.3067°W
Report Text: KPBG 251453Z AUTO 14010KT 10SM CLR 10/07 A2972 RMK AO2 SLP065 T01000067 58016
Loading
Personal Weather Stations






























Interactive Weather Map
Tropical Storm Tracking
New forecast layout! Learn more

10-Day Weather Forecast

Advertisements
Track Severe Weather on mobile